sensor_id;sensor_type;location;lat;lon;timestamp;P1;durP1;ratioP1;P2;durP2;ratioP2
78368;SDS011;71113;43.092;-89.268;2024-02-23T00:01:17;26.23;;;16.15;;
78368;SDS011;71113;43.092;-89.268;2024-02-23T00:03:43;76.75;;;40.00;;
78368;SDS011;71113;43.092;-89.268;2024-02-23T00:06:09;51.90;;;28.17;;
78368;SDS011;71113;43.092;-89.268;2024-02-23T00:08:35;39.90;;;22.15;;
78368;SDS011;71113;43.092;-89.268;2024-02-23T00:11:01;58.25;;;28.10;;
78368;SDS011;71113;43.092;-89.268;2024-02-23T00:13:27;50.78;;;26.30;;
78368;SDS011;71113;43.092;-89.268;2024-02-23T00:15:53;52.40;;;26.65;;
78368;SDS011;71113;43.092;-89.268;2024-02-23T00:18:19;40.80;;;21.30;;
78368;SDS011;71113;43.092;-89.268;2024-02-23T00:20:46;40.08;;;20.10;;
78368;SDS011;71113;43.092;-89.268;2024-02-23T00:23:12;38.92;;;20.42;;
78368;SDS011;71113;43.092;-89.268;2024-02-23T00:25:38;38.63;;;20.20;;
78368;SDS011;71113;43.092;-89.268;2024-02-23T00:28:04;37.45;;;19.23;;
78368;SDS011;71113;43.092;-89.268;2024-02-23T00:30:31;32.33;;;17.95;;
78368;SDS011;71113;43.092;-89.268;2024-02-23T00:32:56;33.40;;;17.25;;
78368;SDS011;71113;43.092;-89.268;2024-02-23T00:35:22;30.85;;;15.73;;
78368;SDS011;71113;43.092;-89.268;2024-02-23T00:37:48;27.73;;;15.50;;
78368;SDS011;71113;43.092;-89.268;2024-02-23T00:40:14;29.42;;;14.93;;
78368;SDS011;71113;43.092;-89.268;2024-02-23T00:42:41;25.60;;;13.80;;
78368;SDS011;71113;43.092;-89.268;2024-02-23T00:45:07;28.40;;;14.23;;
78368;SDS011;71113;43.092;-89.268;2024-02-23T00:47:33;26.45;;;14.85;;
78368;SDS011;71113;43.092;-89.268;2024-02-23T00:50:00;27.65;;;14.40;;
78368;SDS011;71113;43.092;-89.268;2024-02-23T00:52:27;25.48;;;13.68;;
78368;SDS011;71113;43.092;-89.268;2024-02-23T00:54:53;26.80;;;14.13;;
78368;SDS011;71113;43.092;-89.268;2024-02-23T00:57:19;30.42;;;15.10;;
78368;SDS011;71113;43.092;-89.268;2024-02-23T00:59:52;23.40;;;13.25;;
78368;SDS011;71113;43.092;-89.268;2024-02-23T01:02:18;23.95;;;13.00;;
78368;SDS011;71113;43.092;-89.268;2024-02-23T01:04:44;24.45;;;13.20;;
78368;SDS011;71113;43.092;-89.268;2024-02-23T01:07:10;22.33;;;12.30;;
78368;SDS011;71113;43.092;-89.268;2024-02-23T01:09:36;22.48;;;12.25;;
78368;SDS011;71113;43.092;-89.268;2024-02-23T01:12:02;21.35;;;12.02;;
78368;SDS011;71113;43.092;-89.268;2024-02-23T01:14:28;21.65;;;11.85;;
78368;SDS011;71113;43.092;-89.268;2024-02-23T01:16:54;21.17;;;10.82;;
78368;SDS011;71113;43.092;-89.268;2024-02-23T01:19:20;21.67;;;10.80;;
78368;SDS011;71113;43.092;-89.268;2024-02-23T01:21:46;21.48;;;10.40;;
78368;SDS011;71113;43.092;-89.268;2024-02-23T01:24:12;19.98;;;10.32;;
78368;SDS011;71113;43.092;-89.268;2024-02-23T01:26:38;19.83;;;9.60;;
78368;SDS011;71113;43.092;-89.268;2024-02-23T01:29:06;20.15;;;10.10;;
78368;SDS011;71113;43.092;-89.268;2024-02-23T01:31:32;17.02;;;8.57;;
78368;SDS011;71113;43.092;-89.268;2024-02-23T01:33:58;13.02;;;7.78;;
78368;SDS011;71113;43.092;-89.268;2024-02-23T01:36:24;14.75;;;7.57;;
78368;SDS011;71113;43.092;-89.268;2024-02-23T01:38:50;14.50;;;8.25;;
78368;SDS011;71113;43.092;-89.268;2024-02-23T01:41:16;12.15;;;7.13;;
78368;SDS011;71113;43.092;-89.268;2024-02-23T01:43:42;13.43;;;6.70;;
78368;SDS011;71113;43.092;-89.268;2024-02-23T01:46:08;13.57;;;7.22;;
78368;SDS011;71113;43.092;-89.268;2024-02-23T01:48:34;15.70;;;7.20;;
78368;SDS011;71113;43.092;-89.268;2024-02-23T01:51:00;12.18;;;6.88;;
78368;SDS011;71113;43.092;-89.268;2024-02-23T01:53:27;18.00;;;9.98;;
78368;SDS011;71113;43.092;-89.268;2024-02-23T01:55:53;26.75;;;16.63;;
78368;SDS011;71113;43.092;-89.268;2024-02-23T01:58:19;19.38;;;11.95;;
78368;SDS011;71113;43.092;-89.268;2024-02-23T02:00:46;35.50;;;21.52;;
78368;SDS011;71113;43.092;-89.268;2024-02-23T02:03:12;22.90;;;13.75;;
78368;SDS011;71113;43.092;-89.268;2024-02-23T02:05:38;27.92;;;15.60;;
78368;SDS011;71113;43.092;-89.268;2024-02-23T02:08:05;25.90;;;15.10;;
78368;SDS011;71113;43.092;-89.268;2024-02-23T02:10:31;23.85;;;14.07;;
78368;SDS011;71113;43.092;-89.268;2024-02-23T02:13:06;20.20;;;12.00;;
78368;SDS011;71113;43.092;-89.268;2024-02-23T02:15:32;20.23;;;11.98;;
78368;SDS011;71113;43.092;-89.268;2024-02-23T02:17:58;21.10;;;11.68;;
78368;SDS011;71113;43.092;-89.268;2024-02-23T02:20:24;20.60;;;11.82;;
78368;SDS011;71113;43.092;-89.268;2024-02-23T02:22:53;18.70;;;10.35;;
78368;SDS011;71113;43.092;-89.268;2024-02-23T02:25:19;15.80;;;9.68;;
78368;SDS011;71113;43.092;-89.268;2024-02-23T02:27:45;26.05;;;15.98;;
78368;SDS011;71113;43.092;-89.268;2024-02-23T02:30:12;25.05;;;14.48;;
78368;SDS011;71113;43.092;-89.268;2024-02-23T02:32:38;25.05;;;14.30;;
78368;SDS011;71113;43.092;-89.268;2024-02-23T02:35:04;24.02;;;13.50;;
78368;SDS011;71113;43.092;-89.268;2024-02-23T02:37:30;28.58;;;14.98;;
78368;SDS011;71113;43.092;-89.268;2024-02-23T02:39:56;23.60;;;12.38;;
78368;SDS011;71113;43.092;-89.268;2024-02-23T02:42:22;23.38;;;13.00;;
78368;SDS011;71113;43.092;-89.268;2024-02-23T02:44:48;20.95;;;12.07;;
78368;SDS011;71113;43.092;-89.268;2024-02-23T02:47:14;20.08;;;11.48;;
78368;SDS011;71113;43.092;-89.268;2024-02-23T02:49:40;19.00;;;11.00;;
78368;SDS011;71113;43.092;-89.268;2024-02-23T02:52:06;21.50;;;11.77;;
78368;SDS011;71113;43.092;-89.268;2024-02-23T02:54:33;18.25;;;10.63;;
78368;SDS011;71113;43.092;-89.268;2024-02-23T02:56:59;15.18;;;9.52;;
78368;SDS011;71113;43.092;-89.268;2024-02-23T02:59:25;12.63;;;7.63;;
78368;SDS011;71113;43.092;-89.268;2024-02-23T03:01:53;12.82;;;7.60;;
78368;SDS011;71113;43.092;-89.268;2024-02-23T03:04:19;14.23;;;7.90;;
78368;SDS011;71113;43.092;-89.268;2024-02-23T03:06:45;12.20;;;7.28;;
78368;SDS011;71113;43.092;-89.268;2024-02-23T03:09:11;10.82;;;6.45;;
78368;SDS011;71113;43.092;-89.268;2024-02-23T03:11:37;11.80;;;6.50;;
78368;SDS011;71113;43.092;-89.268;2024-02-23T03:14:03;10.98;;;6.13;;
78368;SDS011;71113;43.092;-89.268;2024-02-23T03:16:29;10.52;;;6.25;;
78368;SDS011;71113;43.092;-89.268;2024-02-23T03:18:56;11.20;;;5.88;;
78368;SDS011;71113;43.092;-89.268;2024-02-23T03:21:23;10.80;;;6.15;;
78368;SDS011;71113;43.092;-89.268;2024-02-23T03:23:49;10.15;;;5.80;;
78368;SDS011;71113;43.092;-89.268;2024-02-23T03:26:15;9.63;;;5.50;;
78368;SDS011;71113;43.092;-89.268;2024-02-23T03:28:42;10.02;;;5.50;;
78368;SDS011;71113;43.092;-89.268;2024-02-23T03:31:08;9.43;;;5.50;;
78368;SDS011;71113;43.092;-89.268;2024-02-23T03:33:34;10.50;;;5.53;;
78368;SDS011;71113;43.092;-89.268;2024-02-23T03:36:00;9.88;;;5.50;;
78368;SDS011;71113;43.092;-89.268;2024-02-23T03:38:26;9.00;;;5.03;;
78368;SDS011;71113;43.092;-89.268;2024-02-23T03:40:54;10.02;;;5.13;;
78368;SDS011;71113;43.092;-89.268;2024-02-23T03:43:20;10.32;;;5.82;;
78368;SDS011;71113;43.092;-89.268;2024-02-23T03:45:46;9.32;;;5.43;;
78368;SDS011;71113;43.092;-89.268;2024-02-23T03:48:12;6.93;;;4.25;;
78368;SDS011;71113;43.092;-89.268;2024-02-23T03:50:38;8.30;;;4.82;;
78368;SDS011;71113;43.092;-89.268;2024-02-23T03:53:04;9.30;;;4.80;;
78368;SDS011;71113;43.092;-89.268;2024-02-23T03:55:30;6.95;;;4.03;;
78368;SDS011;71113;43.092;-89.268;2024-02-23T03:57:56;7.22;;;3.72;;
78368;SDS011;71113;43.092;-89.268;2024-02-23T04:00:22;7.43;;;4.20;;
78368;SDS011;71113;43.092;-89.268;2024-02-23T04:02:49;11.23;;;4.20;;
78368;SDS011;71113;43.092;-89.268;2024-02-23T04:05:15;8.45;;;4.15;;
78368;SDS011;71113;43.092;-89.268;2024-02-23T04:07:41;5.70;;;3.60;;
78368;SDS011;71113;43.092;-89.268;2024-02-23T04:10:07;6.97;;;3.78;;
78368;SDS011;71113;43.092;-89.268;2024-02-23T04:12:33;7.10;;;3.72;;
78368;SDS011;71113;43.092;-89.268;2024-02-23T04:14:59;6.90;;;3.65;;
78368;SDS011;71113;43.092;-89.268;2024-02-23T04:17:25;6.38;;;3.30;;
78368;SDS011;71113;43.092;-89.268;2024-02-23T04:19:51;7.65;;;3.60;;
78368;SDS011;71113;43.092;-89.268;2024-02-23T04:22:17;6.22;;;3.60;;
78368;SDS011;71113;43.092;-89.268;2024-02-23T04:24:43;6.20;;;3.30;;
78368;SDS011;71113;43.092;-89.268;2024-02-23T04:27:09;4.90;;;2.80;;
78368;SDS011;71113;43.092;-89.268;2024-02-23T04:29:35;5.80;;;3.33;;
78368;SDS011;71113;43.092;-89.268;2024-02-23T04:32:01;4.75;;;2.90;;
78368;SDS011;71113;43.092;-89.268;2024-02-23T04:34:28;5.57;;;3.15;;
78368;SDS011;71113;43.092;-89.268;2024-02-23T04:36:54;5.95;;;2.83;;
78368;SDS011;71113;43.092;-89.268;2024-02-23T04:39:20;6.03;;;3.00;;
78368;SDS011;71113;43.092;-89.268;2024-02-23T04:41:47;5.07;;;3.00;;
78368;SDS011;71113;43.092;-89.268;2024-02-23T04:44:13;5.80;;;3.08;;
78368;SDS011;71113;43.092;-89.268;2024-02-23T04:46:39;4.93;;;2.70;;
78368;SDS011;71113;43.092;-89.268;2024-02-23T04:49:05;5.72;;;2.40;;
78368;SDS011;71113;43.092;-89.268;2024-02-23T04:51:31;4.45;;;2.53;;
78368;SDS011;71113;43.092;-89.268;2024-02-23T04:53:57;4.82;;;2.85;;
78368;SDS011;71113;43.092;-89.268;2024-02-23T04:56:23;6.15;;;2.95;;
78368;SDS011;71113;43.092;-89.268;2024-02-23T04:58:49;5.05;;;2.50;;
78368;SDS011;71113;43.092;-89.268;2024-02-23T05:01:15;4.15;;;2.10;;
78368;SDS011;71113;43.092;-89.268;2024-02-23T05:03:41;4.45;;;2.42;;
78368;SDS011;71113;43.092;-89.268;2024-02-23T05:06:07;4.35;;;2.10;;
78368;SDS011;71113;43.092;-89.268;2024-02-23T05:08:33;4.13;;;2.20;;
78368;SDS011;71113;43.092;-89.268;2024-02-23T05:10:59;3.95;;;2.33;;
78368;SDS011;71113;43.092;-89.268;2024-02-23T05:13:25;4.32;;;2.28;;
78368;SDS011;71113;43.092;-89.268;2024-02-23T05:15:51;3.80;;;2.17;;
78368;SDS011;71113;43.092;-89.268;2024-02-23T05:18:17;4.05;;;2.50;;
78368;SDS011;71113;43.092;-89.268;2024-02-23T05:20:43;4.50;;;2.30;;
78368;SDS011;71113;43.092;-89.268;2024-02-23T05:23:09;3.95;;;2.03;;
78368;SDS011;71113;43.092;-89.268;2024-02-23T05:25:34;3.83;;;2.03;;
78368;SDS011;71113;43.092;-89.268;2024-02-23T05:28:00;4.53;;;2.17;;
78368;SDS011;71113;43.092;-89.268;2024-02-23T05:30:26;3.25;;;1.70;;
78368;SDS011;71113;43.092;-89.268;2024-02-23T05:32:56;4.55;;;1.90;;
78368;SDS011;71113;43.092;-89.268;2024-02-23T05:35:23;4.30;;;1.90;;
78368;SDS011;71113;43.092;-89.268;2024-02-23T05:37:50;3.47;;;1.73;;
78368;SDS011;71113;43.092;-89.268;2024-02-23T05:40:16;4.22;;;1.70;;
78368;SDS011;71113;43.092;-89.268;2024-02-23T05:42:43;3.38;;;1.85;;
78368;SDS011;71113;43.092;-89.268;2024-02-23T05:45:09;3.40;;;1.90;;
78368;SDS011;71113;43.092;-89.268;2024-02-23T05:47:38;3.80;;;2.00;;
78368;SDS011;71113;43.092;-89.268;2024-02-23T05:50:04;3.22;;;1.70;;
78368;SDS011;71113;43.092;-89.268;2024-02-23T05:52:31;3.28;;;1.65;;
78368;SDS011;71113;43.092;-89.268;2024-02-23T05:54:58;3.00;;;1.67;;
78368;SDS011;71113;43.092;-89.268;2024-02-23T05:57:25;2.83;;;1.65;;
78368;SDS011;71113;43.092;-89.268;2024-02-23T05:59:52;3.33;;;1.83;;
78368;SDS011;71113;43.092;-89.268;2024-02-23T06:02:18;4.25;;;1.70;;
78368;SDS011;71113;43.092;-89.268;2024-02-23T06:04:44;2.55;;;1.52;;
78368;SDS011;71113;43.092;-89.268;2024-02-23T06:07:10;3.30;;;1.80;;
78368;SDS011;71113;43.092;-89.268;2024-02-23T06:09:36;4.20;;;2.35;;
78368;SDS011;71113;43.092;-89.268;2024-02-23T06:12:02;2.92;;;1.67;;
78368;SDS011;71113;43.092;-89.268;2024-02-23T06:14:28;3.20;;;1.50;;
78368;SDS011;71113;43.092;-89.268;2024-02-23T06:16:54;3.03;;;1.60;;
78368;SDS011;71113;43.092;-89.268;2024-02-23T06:19:20;2.85;;;1.58;;
78368;SDS011;71113;43.092;-89.268;2024-02-23T06:21:49;3.63;;;1.75;;
78368;SDS011;71113;43.092;-89.268;2024-02-23T06:24:15;2.20;;;1.23;;
78368;SDS011;71113;43.092;-89.268;2024-02-23T06:26:42;3.35;;;1.40;;
78368;SDS011;71113;43.092;-89.268;2024-02-23T06:29:08;2.60;;;1.35;;
78368;SDS011;71113;43.092;-89.268;2024-02-23T06:31:36;2.55;;;1.40;;
78368;SDS011;71113;43.092;-89.268;2024-02-23T06:34:03;2.58;;;1.50;;
78368;SDS011;71113;43.092;-89.268;2024-02-23T06:36:30;2.67;;;1.40;;
78368;SDS011;71113;43.092;-89.268;2024-02-23T06:38:55;2.90;;;1.60;;
78368;SDS011;71113;43.092;-89.268;2024-02-23T06:41:21;2.30;;;1.30;;
78368;SDS011;71113;43.092;-89.268;2024-02-23T06:43:48;2.67;;;1.40;;
78368;SDS011;71113;43.092;-89.268;2024-02-23T06:46:14;2.55;;;1.42;;
78368;SDS011;71113;43.092;-89.268;2024-02-23T06:48:39;2.53;;;1.35;;
78368;SDS011;71113;43.092;-89.268;2024-02-23T06:51:06;2.60;;;1.40;;
78368;SDS011;71113;43.092;-89.268;2024-02-23T06:53:52;2.55;;;1.40;;
78368;SDS011;71113;43.092;-89.268;2024-02-23T06:56:18;2.33;;;1.52;;
78368;SDS011;71113;43.092;-89.268;2024-02-23T06:58:44;2.33;;;1.25;;
78368;SDS011;71113;43.092;-89.268;2024-02-23T07:01:10;2.55;;;1.30;;
78368;SDS011;71113;43.092;-89.268;2024-02-23T07:03:38;2.42;;;1.45;;
78368;SDS011;71113;43.092;-89.268;2024-02-23T07:06:05;1.83;;;1.08;;
78368;SDS011;71113;43.092;-89.268;2024-02-23T07:08:31;2.08;;;1.27;;
78368;SDS011;71113;43.092;-89.268;2024-02-23T07:10:57;2.47;;;1.27;;
78368;SDS011;71113;43.092;-89.268;2024-02-23T07:13:23;2.20;;;1.33;;
78368;SDS011;71113;43.092;-89.268;2024-02-23T07:15:49;3.08;;;1.67;;
78368;SDS011;71113;43.092;-89.268;2024-02-23T07:18:14;2.60;;;1.40;;
78368;SDS011;71113;43.092;-89.268;2024-02-23T07:20:41;2.78;;;1.52;;
78368;SDS011;71113;43.092;-89.268;2024-02-23T07:23:07;2.45;;;1.48;;
78368;SDS011;71113;43.092;-89.268;2024-02-23T07:25:34;2.45;;;1.33;;
78368;SDS011;71113;43.092;-89.268;2024-02-23T07:28:00;1.98;;;1.33;;
78368;SDS011;71113;43.092;-89.268;2024-02-23T07:30:26;2.15;;;1.25;;
78368;SDS011;71113;43.092;-89.268;2024-02-23T07:32:51;2.60;;;1.40;;
78368;SDS011;71113;43.092;-89.268;2024-02-23T07:35:17;2.40;;;1.25;;
78368;SDS011;71113;43.092;-89.268;2024-02-23T07:37:43;2.55;;;1.50;;
78368;SDS011;71113;43.092;-89.268;2024-02-23T07:40:09;3.08;;;1.40;;
78368;SDS011;71113;43.092;-89.268;2024-02-23T07:42:35;2.72;;;1.35;;
78368;SDS011;71113;43.092;-89.268;2024-02-23T07:45:05;2.65;;;1.50;;
78368;SDS011;71113;43.092;-89.268;2024-02-23T07:47:32;2.20;;;1.35;;
78368;SDS011;71113;43.092;-89.268;2024-02-23T07:49:58;2.75;;;1.40;;
78368;SDS011;71113;43.092;-89.268;2024-02-23T07:52:24;2.22;;;1.35;;
78368;SDS011;71113;43.092;-89.268;2024-02-23T07:54:54;2.38;;;1.50;;
78368;SDS011;71113;43.092;-89.268;2024-02-23T07:57:20;2.35;;;1.23;;
78368;SDS011;71113;43.092;-89.268;2024-02-23T07:59:46;2.53;;;1.40;;
78368;SDS011;71113;43.092;-89.268;2024-02-23T08:02:13;1.98;;;1.30;;
78368;SDS011;71113;43.092;-89.268;2024-02-23T08:04:39;2.20;;;1.30;;
78368;SDS011;71113;43.092;-89.268;2024-02-23T08:07:05;2.70;;;1.38;;
78368;SDS011;71113;43.092;-89.268;2024-02-23T08:09:31;2.30;;;1.38;;
78368;SDS011;71113;43.092;-89.268;2024-02-23T08:11:57;1.77;;;1.20;;
78368;SDS011;71113;43.092;-89.268;2024-02-23T08:14:23;2.55;;;1.42;;
78368;SDS011;71113;43.092;-89.268;2024-02-23T08:16:49;4.45;;;1.50;;
78368;SDS011;71113;43.092;-89.268;2024-02-23T08:19:15;2.58;;;1.50;;
78368;SDS011;71113;43.092;-89.268;2024-02-23T08:21:41;2.20;;;1.40;;
78368;SDS011;71113;43.092;-89.268;2024-02-23T08:24:08;2.30;;;1.30;;
78368;SDS011;71113;43.092;-89.268;2024-02-23T08:26:34;2.75;;;1.50;;
78368;SDS011;71113;43.092;-89.268;2024-02-23T08:29:03;2.38;;;1.40;;
78368;SDS011;71113;43.092;-89.268;2024-02-23T08:31:29;2.70;;;1.52;;
78368;SDS011;71113;43.092;-89.268;2024-02-23T08:33:56;2.70;;;1.65;;
78368;SDS011;71113;43.092;-89.268;2024-02-23T08:36:21;2.30;;;1.45;;
78368;SDS011;71113;43.092;-89.268;2024-02-23T08:38:47;3.20;;;1.70;;
78368;SDS011;71113;43.092;-89.268;2024-02-23T08:41:13;2.75;;;1.60;;
78368;SDS011;71113;43.092;-89.268;2024-02-23T08:43:40;2.30;;;1.35;;
78368;SDS011;71113;43.092;-89.268;2024-02-23T08:46:06;2.58;;;1.52;;
78368;SDS011;71113;43.092;-89.268;2024-02-23T08:48:31;2.70;;;1.50;;
78368;SDS011;71113;43.092;-89.268;2024-02-23T08:50:57;2.15;;;1.30;;
78368;SDS011;71113;43.092;-89.268;2024-02-23T08:53:23;2.58;;;1.40;;
78368;SDS011;71113;43.092;-89.268;2024-02-23T08:55:49;2.50;;;1.50;;
78368;SDS011;71113;43.092;-89.268;2024-02-23T08:58:15;2.97;;;1.70;;
78368;SDS011;71113;43.092;-89.268;2024-02-23T09:00:41;2.25;;;1.20;;
78368;SDS011;71113;43.092;-89.268;2024-02-23T09:03:07;2.20;;;1.50;;
78368;SDS011;71113;43.092;-89.268;2024-02-23T09:05:33;2.22;;;1.52;;
78368;SDS011;71113;43.092;-89.268;2024-02-23T09:07:59;2.22;;;1.33;;
78368;SDS011;71113;43.092;-89.268;2024-02-23T09:10:24;2.45;;;1.35;;
78368;SDS011;71113;43.092;-89.268;2024-02-23T09:12:50;2.50;;;1.50;;
78368;SDS011;71113;43.092;-89.268;2024-02-23T09:15:16;2.78;;;1.52;;
78368;SDS011;71113;43.092;-89.268;2024-02-23T09:17:42;3.10;;;1.73;;
78368;SDS011;71113;43.092;-89.268;2024-02-23T09:20:08;2.65;;;1.40;;
78368;SDS011;71113;43.092;-89.268;2024-02-23T09:22:34;2.15;;;1.35;;
78368;SDS011;71113;43.092;-89.268;2024-02-23T09:25:02;3.08;;;1.60;;
78368;SDS011;71113;43.092;-89.268;2024-02-23T09:27:30;3.00;;;1.60;;
78368;SDS011;71113;43.092;-89.268;2024-02-23T09:29:56;3.05;;;1.65;;
78368;SDS011;71113;43.092;-89.268;2024-02-23T09:32:23;2.22;;;1.35;;
78368;SDS011;71113;43.092;-89.268;2024-02-23T09:34:49;2.10;;;1.50;;
78368;SDS011;71113;43.092;-89.268;2024-02-23T09:37:15;2.20;;;1.35;;
78368;SDS011;71113;43.092;-89.268;2024-02-23T09:39:41;2.40;;;1.50;;
78368;SDS011;71113;43.092;-89.268;2024-02-23T09:42:08;2.58;;;1.50;;
78368;SDS011;71113;43.092;-89.268;2024-02-23T09:44:36;2.60;;;1.60;;
78368;SDS011;71113;43.092;-89.268;2024-02-23T09:47:02;2.55;;;1.42;;
78368;SDS011;71113;43.092;-89.268;2024-02-23T09:49:39;2.53;;;1.70;;
78368;SDS011;71113;43.092;-89.268;2024-02-23T09:52:09;2.72;;;1.52;;
78368;SDS011;71113;43.092;-89.268;2024-02-23T09:54:38;2.70;;;1.33;;
78368;SDS011;71113;43.092;-89.268;2024-02-23T09:57:06;3.03;;;1.58;;
78368;SDS011;71113;43.092;-89.268;2024-02-23T09:59:34;2.78;;;1.50;;
78368;SDS011;71113;43.092;-89.268;2024-02-23T10:02:01;2.28;;;1.40;;
78368;SDS011;71113;43.092;-89.268;2024-02-23T10:04:40;2.95;;;1.60;;
78368;SDS011;71113;43.092;-89.268;2024-02-23T10:07:08;2.60;;;1.60;;
78368;SDS011;71113;43.092;-89.268;2024-02-23T10:09:35;2.55;;;1.65;;
78368;SDS011;71113;43.092;-89.268;2024-02-23T10:12:04;2.90;;;1.50;;
78368;SDS011;71113;43.092;-89.268;2024-02-23T10:14:30;2.63;;;1.55;;
78368;SDS011;71113;43.092;-89.268;2024-02-23T10:16:56;2.53;;;1.50;;
78368;SDS011;71113;43.092;-89.268;2024-02-23T10:19:22;2.30;;;1.40;;
78368;SDS011;71113;43.092;-89.268;2024-02-23T10:21:54;2.88;;;1.70;;
78368;SDS011;71113;43.092;-89.268;2024-02-23T10:24:20;2.55;;;1.60;;
78368;SDS011;71113;43.092;-89.268;2024-02-23T10:26:47;2.67;;;1.70;;
78368;SDS011;71113;43.092;-89.268;2024-02-23T10:29:13;2.63;;;1.60;;
78368;SDS011;71113;43.092;-89.268;2024-02-23T10:31:39;2.90;;;1.85;;
78368;SDS011;71113;43.092;-89.268;2024-02-23T10:34:09;2.45;;;1.48;;
78368;SDS011;71113;43.092;-89.268;2024-02-23T10:36:40;2.92;;;1.88;;
78368;SDS011;71113;43.092;-89.268;2024-02-23T10:39:10;2.45;;;1.40;;
78368;SDS011;71113;43.092;-89.268;2024-02-23T10:41:39;3.25;;;1.75;;
78368;SDS011;71113;43.092;-89.268;2024-02-23T10:44:11;2.80;;;1.70;;
78368;SDS011;71113;43.092;-89.268;2024-02-23T10:46:41;2.72;;;1.67;;
78368;SDS011;71113;43.092;-89.268;2024-02-23T10:49:07;3.53;;;1.95;;
78368;SDS011;71113;43.092;-89.268;2024-02-23T10:51:33;2.97;;;1.65;;
78368;SDS011;71113;43.092;-89.268;2024-02-23T10:54:01;3.00;;;1.90;;
78368;SDS011;71113;43.092;-89.268;2024-02-23T10:56:28;2.88;;;1.60;;
78368;SDS011;71113;43.092;-89.268;2024-02-23T10:58:54;2.78;;;1.48;;
78368;SDS011;71113;43.092;-89.268;2024-02-23T11:01:20;2.40;;;1.70;;
78368;SDS011;71113;43.092;-89.268;2024-02-23T11:03:48;2.90;;;1.60;;
78368;SDS011;71113;43.092;-89.268;2024-02-23T11:06:16;2.80;;;1.73;;
78368;SDS011;71113;43.092;-89.268;2024-02-23T11:08:46;3.35;;;1.70;;
78368;SDS011;71113;43.092;-89.268;2024-02-23T11:11:16;2.45;;;1.60;;
78368;SDS011;71113;43.092;-89.268;2024-02-23T11:13:45;3.10;;;1.83;;
78368;SDS011;71113;43.092;-89.268;2024-02-23T11:16:12;2.42;;;1.50;;
78368;SDS011;71113;43.092;-89.268;2024-02-23T11:18:48;2.65;;;1.52;;
78368;SDS011;71113;43.092;-89.268;2024-02-23T11:21:14;2.72;;;1.55;;
78368;SDS011;71113;43.092;-89.268;2024-02-23T11:23:47;2.72;;;1.70;;
78368;SDS011;71113;43.092;-89.268;2024-02-23T11:26:16;2.45;;;1.50;;
78368;SDS011;71113;43.092;-89.268;2024-02-23T11:28:43;2.47;;;1.50;;
78368;SDS011;71113;43.092;-89.268;2024-02-23T11:31:24;2.63;;;1.42;;
78368;SDS011;71113;43.092;-89.268;2024-02-23T11:33:54;2.17;;;1.20;;
78368;SDS011;71113;43.092;-89.268;2024-02-23T11:36:27;2.30;;;1.40;;
78368;SDS011;71113;43.092;-89.268;2024-02-23T11:38:56;2.75;;;1.60;;
78368;SDS011;71113;43.092;-89.268;2024-02-23T11:41:23;3.05;;;1.52;;
78368;SDS011;71113;43.092;-89.268;2024-02-23T11:43:53;2.30;;;1.40;;
78368;SDS011;71113;43.092;-89.268;2024-02-23T11:46:28;2.20;;;1.40;;
78368;SDS011;71113;43.092;-89.268;2024-02-23T11:48:54;2.13;;;1.33;;
78368;SDS011;71113;43.092;-89.268;2024-02-23T11:51:23;2.40;;;1.58;;
78368;SDS011;71113;43.092;-89.268;2024-02-23T11:53:51;3.65;;;1.40;;
78368;SDS011;71113;43.092;-89.268;2024-02-23T11:56:18;2.10;;;1.30;;
78368;SDS011;71113;43.092;-89.268;2024-02-23T11:58:46;2.13;;;1.30;;
78368;SDS011;71113;43.092;-89.268;2024-02-23T12:01:12;1.65;;;1.10;;
78368;SDS011;71113;43.092;-89.268;2024-02-23T12:03:38;1.85;;;1.20;;
78368;SDS011;71113;43.092;-89.268;2024-02-23T12:06:04;1.88;;;1.23;;
78368;SDS011;71113;43.092;-89.268;2024-02-23T12:08:32;1.83;;;1.30;;
78368;SDS011;71113;43.092;-89.268;2024-02-23T12:13:29;1.98;;;1.15;;
78368;SDS011;71113;43.092;-89.268;2024-02-23T12:15:55;2.00;;;1.15;;
78368;SDS011;71113;43.092;-89.268;2024-02-23T12:18:24;2.22;;;1.33;;
78368;SDS011;71113;43.092;-89.268;2024-02-23T12:21:04;1.95;;;1.05;;
78368;SDS011;71113;43.092;-89.268;2024-02-23T12:23:40;1.98;;;1.20;;
78368;SDS011;71113;43.092;-89.268;2024-02-23T12:26:05;1.67;;;1.10;;
78368;SDS011;71113;43.092;-89.268;2024-02-23T12:28:31;2.63;;;1.30;;
78368;SDS011;71113;43.092;-89.268;2024-02-23T12:31:01;2.17;;;1.30;;
78368;SDS011;71113;43.092;-89.268;2024-02-23T12:33:28;1.67;;;1.17;;
78368;SDS011;71113;43.092;-89.268;2024-02-23T12:36:00;1.70;;;1.00;;
78368;SDS011;71113;43.092;-89.268;2024-02-23T12:38:29;2.25;;;1.05;;
78368;SDS011;71113;43.092;-89.268;2024-02-23T12:40:55;1.45;;;1.08;;
78368;SDS011;71113;43.092;-89.268;2024-02-23T12:43:21;1.95;;;1.25;;
78368;SDS011;71113;43.092;-89.268;2024-02-23T12:45:50;2.00;;;1.20;;
78368;SDS011;71113;43.092;-89.268;2024-02-23T12:48:16;1.40;;;1.02;;
78368;SDS011;71113;43.092;-89.268;2024-02-23T12:50:43;2.40;;;1.30;;
78368;SDS011;71113;43.092;-89.268;2024-02-23T12:53:11;2.05;;;1.30;;
78368;SDS011;71113;43.092;-89.268;2024-02-23T12:56:05;2.10;;;1.33;;
78368;SDS011;71113;43.092;-89.268;2024-02-23T12:58:33;2.17;;;1.25;;
78368;SDS011;71113;43.092;-89.268;2024-02-23T13:01:00;2.95;;;1.20;;
78368;SDS011;71113;43.092;-89.268;2024-02-23T13:03:26;1.63;;;1.10;;
78368;SDS011;71113;43.092;-89.268;2024-02-23T13:05:57;2.15;;;1.30;;
78368;SDS011;71113;43.092;-89.268;2024-02-23T13:08:23;1.95;;;1.20;;
78368;SDS011;71113;43.092;-89.268;2024-02-23T13:10:50;2.03;;;1.20;;
78368;SDS011;71113;43.092;-89.268;2024-02-23T13:13:16;2.20;;;1.35;;
78368;SDS011;71113;43.092;-89.268;2024-02-23T13:15:49;2.22;;;1.42;;
78368;SDS011;71113;43.092;-89.268;2024-02-23T13:18:15;1.95;;;1.27;;
78368;SDS011;71113;43.092;-89.268;2024-02-23T13:20:42;2.05;;;1.33;;
78368;SDS011;71113;43.092;-89.268;2024-02-23T13:23:08;2.38;;;1.40;;
78368;SDS011;71113;43.092;-89.268;2024-02-23T13:25:35;2.10;;;1.20;;
78368;SDS011;71113;43.092;-89.268;2024-02-23T13:28:02;2.10;;;1.50;;
78368;SDS011;71113;43.092;-89.268;2024-02-23T13:30:29;2.45;;;1.40;;
78368;SDS011;71113;43.092;-89.268;2024-02-23T13:32:55;2.20;;;1.30;;
78368;SDS011;71113;43.092;-89.268;2024-02-23T13:35:20;2.53;;;1.40;;
78368;SDS011;71113;43.092;-89.268;2024-02-23T13:37:47;2.10;;;1.30;;
78368;SDS011;71113;43.092;-89.268;2024-02-23T13:40:13;1.90;;;1.20;;
78368;SDS011;71113;43.092;-89.268;2024-02-23T13:42:39;2.35;;;1.35;;
78368;SDS011;71113;43.092;-89.268;2024-02-23T13:45:06;2.50;;;1.50;;
78368;SDS011;71113;43.092;-89.268;2024-02-23T13:47:34;2.20;;;1.30;;
78368;SDS011;71113;43.092;-89.268;2024-02-23T13:50:01;3.35;;;1.40;;
78368;SDS011;71113;43.092;-89.268;2024-02-23T13:52:28;2.45;;;1.38;;
78368;SDS011;71113;43.092;-89.268;2024-02-23T13:54:54;2.47;;;1.52;;
78368;SDS011;71113;43.092;-89.268;2024-02-23T13:57:20;2.53;;;1.50;;
78368;SDS011;71113;43.092;-89.268;2024-02-23T13:59:46;2.40;;;1.35;;
78368;SDS011;71113;43.092;-89.268;2024-02-23T14:02:13;2.53;;;1.40;;
78368;SDS011;71113;43.092;-89.268;2024-02-23T14:04:39;2.38;;;1.50;;
78368;SDS011;71113;43.092;-89.268;2024-02-23T14:07:05;3.97;;;1.52;;
78368;SDS011;71113;43.092;-89.268;2024-02-23T14:09:32;3.03;;;1.70;;
78368;SDS011;71113;43.092;-89.268;2024-02-23T14:11:58;1.83;;;1.30;;
78368;SDS011;71113;43.092;-89.268;2024-02-23T14:14:24;2.20;;;1.30;;
78368;SDS011;71113;43.092;-89.268;2024-02-23T14:16:50;2.78;;;1.30;;